Time;durP1;ratioP1;P1;durP2;ratioP2;P2;SDS_P1;SDS_P2;PMS_P1;PMS_P2;Temp;Humidity;BMP_temperature;BMP_pressure;BME280_temperature;BME280_humidity;BME280_pressure;Samples;Min_cycle;Max_cycle;Signal;HPM_P1;HPM_P2
2024/03/03 00:01:03;;;;;;;29.23;14.70;;;;;;;;;;5100831;28;20098;-54
2024/03/03 00:03:29;;;;;;;31.08;15.07;;;;;;;;;;5083876;28;20091;-54
2024/03/03 00:05:55;;;;;;;33.15;14.63;;;;;;;;;;5099118;28;20024;-54
2024/03/03 00:08:23;;;;;;;30.70;14.05;;;;;;;;;;5098204;28;20020;-54
2024/03/03 00:10:50;;;;;;;33.17;16.15;;;;;;;;;;5080595;28;20051;-53
2024/03/03 00:13:16;;;;;;;29.10;14.38;;;;;;;;;;5094761;28;20473;-54
2024/03/03 00:15:42;;;;;;;31.73;15.00;;;;;;;;;;5106613;28;20133;-54
2024/03/03 00:18:07;;;;;;;31.27;15.15;;;;;;;;;;5113338;28;20044;-54
2024/03/03 00:20:33;;;;;;;32.03;15.40;;;;;;;;;;5107081;28;20024;-54
2024/03/03 00:22:59;;;;;;;37.80;16.85;;;;;;;;;;5110963;28;20020;-53
2024/03/03 00:25:25;;;;;;;32.30;16.38;;;;;;;;;;5105886;28;20022;-54
2024/03/03 00:27:51;;;;;;;46.78;18.80;;;;;;;;;;5103635;28;20023;-54
2024/03/03 00:30:17;;;;;;;42.70;18.80;;;;;;;;;;5116344;28;20032;-54
2024/03/03 00:32:47;;;;;;;39.72;17.75;;;;;;;;;;5112314;28;20433;-52
2024/03/03 00:35:14;;;;;;;42.72;17.27;;;;;;;;;;5095199;28;20042;-54
2024/03/03 00:37:40;;;;;;;39.10;17.95;;;;;;;;;;5094965;28;20024;-52
2024/03/03 00:40:06;;;;;;;40.92;20.45;;;;;;;;;;5093522;28;20460;-49
2024/03/03 00:42:32;;;;;;;30.50;16.65;;;;;;;;;;5094877;28;20024;-50
2024/03/03 00:44:58;;;;;;;40.75;18.90;;;;;;;;;;5094247;28;20032;-49
2024/03/03 00:47:24;;;;;;;44.90;21.88;;;;;;;;;;5099306;28;20020;-50
2024/03/03 00:49:50;;;;;;;54.50;22.20;;;;;;;;;;5089208;28;21035;-52
2024/03/03 00:52:16;;;;;;;39.65;20.38;;;;;;;;;;5091673;28;20055;-51
2024/03/03 00:54:42;;;;;;;47.28;21.88;;;;;;;;;;5097804;28;20042;-51
2024/03/03 00:57:08;;;;;;;51.85;23.08;;;;;;;;;;5095135;28;20450;-48
2024/03/03 00:59:34;;;;;;;48.80;22.55;;;;;;;;;;5094853;28;20383;-52
2024/03/03 01:02:00;;;;;;;55.15;24.33;;;;;;;;;;5095108;28;20047;-51
2024/03/03 01:04:26;;;;;;;57.38;25.85;;;;;;;;;;5103175;28;20031;-51
2024/03/03 01:06:52;;;;;;;55.92;26.05;;;;;;;;;;5100458;28;20024;-53
2024/03/03 01:09:18;;;;;;;54.35;25.25;;;;;;;;;;5086847;28;20032;-51
2024/03/03 01:11:45;;;;;;;53.70;26.05;;;;;;;;;;5095247;28;20081;-50
2024/03/03 01:14:11;;;;;;;51.80;23.10;;;;;;;;;;5092990;28;20028;-52
2024/03/03 01:16:37;;;;;;;52.88;22.95;;;;;;;;;;5088368;28;20038;-53
2024/03/03 01:19:03;;;;;;;51.45;24.23;;;;;;;;;;5097483;28;20027;-48
2024/03/03 01:21:30;;;;;;;53.10;24.20;;;;;;;;;;5102997;28;20023;-53
2024/03/03 01:23:56;;;;;;;48.28;23.67;;;;;;;;;;5099659;28;20078;-51
2024/03/03 01:26:22;;;;;;;47.72;23.98;;;;;;;;;;5097119;28;20019;-51
2024/03/03 01:28:48;;;;;;;48.45;22.08;;;;;;;;;;5093945;28;20028;-50
2024/03/03 01:31:14;;;;;;;44.30;23.13;;;;;;;;;;5096532;28;20494;-52
2024/03/03 01:33:40;;;;;;;52.35;24.30;;;;;;;;;;5095176;28;20410;-52
2024/03/03 01:36:06;;;;;;;56.47;24.25;;;;;;;;;;5109258;28;20037;-52
2024/03/03 01:38:32;;;;;;;49.00;24.17;;;;;;;;;;5098078;28;20064;-52
2024/03/03 01:40:58;;;;;;;51.55;24.08;;;;;;;;;;5097119;28;20028;-48
2024/03/03 01:43:24;;;;;;;53.58;24.45;;;;;;;;;;5105683;28;20463;-51
2024/03/03 01:45:50;;;;;;;48.35;23.33;;;;;;;;;;5112702;28;20031;-53
2024/03/03 01:48:16;;;;;;;50.58;24.83;;;;;;;;;;5108832;28;20070;-57
2024/03/03 01:50:42;;;;;;;46.50;23.25;;;;;;;;;;5099448;28;20019;-57
2024/03/03 01:53:08;;;;;;;54.08;23.55;;;;;;;;;;5105855;28;20471;-57
2024/03/03 01:55:34;;;;;;;44.85;22.08;;;;;;;;;;5105802;28;20598;-57
2024/03/03 01:58:02;;;;;;;43.25;21.25;;;;;;;;;;5096258;28;20119;-56
2024/03/03 02:00:29;;;;;;;47.65;21.88;;;;;;;;;;5113997;28;20031;-57
2024/03/03 02:02:55;;;;;;;47.60;22.10;;;;;;;;;;5102517;28;20038;-57
2024/03/03 02:05:21;;;;;;;48.22;22.58;;;;;;;;;;5099608;28;20020;-57
2024/03/03 02:07:48;;;;;;;46.67;23.02;;;;;;;;;;5108680;28;20103;-58
2024/03/03 02:10:15;;;;;;;51.13;25.10;;;;;;;;;;5098958;28;20487;-55
2024/03/03 02:12:45;;;;;;;43.38;22.27;;;;;;;;;;5098561;28;20032;-57
2024/03/03 02:15:11;;;;;;;43.10;22.17;;;;;;;;;;5105273;28;20027;-57
2024/03/03 02:17:37;;;;;;;53.95;26.73;;;;;;;;;;5099173;28;20130;-57
2024/03/03 02:20:04;;;;;;;60.78;26.45;;;;;;;;;;5102177;28;20119;-56
2024/03/03 02:22:30;;;;;;;57.08;25.55;;;;;;;;;;5104331;28;20027;-57
2024/03/03 02:24:56;;;;;;;54.80;25.13;;;;;;;;;;5102912;28;20115;-58
2024/03/03 02:27:23;;;;;;;57.33;27.52;;;;;;;;;;5102006;28;20102;-60
2024/03/03 02:29:49;;;;;;;59.50;27.33;;;;;;;;;;5101669;28;20514;-58
2024/03/03 02:32:15;;;;;;;53.75;25.75;;;;;;;;;;5106337;28;20042;-54
2024/03/03 02:34:41;;;;;;;53.40;27.08;;;;;;;;;;5102507;28;20433;-57
2024/03/03 02:37:07;;;;;;;60.80;26.15;;;;;;;;;;5113388;28;20027;-57
2024/03/03 02:39:33;;;;;;;57.45;26.58;;;;;;;;;;5102816;28;20032;-57
2024/03/03 02:42:00;;;;;;;55.55;26.73;;;;;;;;;;5113310;28;20560;-58
2024/03/03 02:44:25;;;;;;;55.38;25.80;;;;;;;;;;5111098;28;20364;-56
2024/03/03 02:46:51;;;;;;;70.22;27.63;;;;;;;;;;5111880;28;20034;-57
2024/03/03 02:49:17;;;;;;;57.67;26.48;;;;;;;;;;5111631;28;20034;-58
2024/03/03 02:51:44;;;;;;;62.05;28.60;;;;;;;;;;5113342;28;20032;-58
2024/03/03 02:54:10;;;;;;;56.78;27.45;;;;;;;;;;5098354;28;20031;-57
2024/03/03 02:56:36;;;;;;;56.65;27.02;;;;;;;;;;5092865;28;20028;-56
2024/03/03 02:59:02;;;;;;;51.25;24.98;;;;;;;;;;5087608;28;20036;-56
2024/03/03 03:01:28;;;;;;;70.05;31.08;;;;;;;;;;5091349;28;20024;-56
2024/03/03 03:03:53;;;;;;;62.60;28.92;;;;;;;;;;5092328;28;20098;-56
2024/03/03 03:06:19;;;;;;;65.75;28.40;;;;;;;;;;5093806;28;20028;-56
2024/03/03 03:08:45;;;;;;;61.03;28.40;;;;;;;;;;5089747;28;20035;-56
2024/03/03 03:11:14;;;;;;;61.78;28.17;;;;;;;;;;5097318;28;20059;-55
2024/03/03 03:13:40;;;;;;;52.90;26.30;;;;;;;;;;5111307;28;20038;-57
2024/03/03 03:16:06;;;;;;;64.95;28.00;;;;;;;;;;5095681;28;20399;-56
2024/03/03 03:18:32;;;;;;;55.25;27.98;;;;;;;;;;5092358;28;20048;-55
2024/03/03 03:20:58;;;;;;;62.15;27.70;;;;;;;;;;5104861;28;20032;-57
2024/03/03 03:23:24;;;;;;;65.22;27.23;;;;;;;;;;5097191;28;20027;-53
2024/03/03 03:25:50;;;;;;;57.95;27.33;;;;;;;;;;5095112;28;20031;-57
2024/03/03 03:28:16;;;;;;;56.40;27.55;;;;;;;;;;5092479;28;20032;-56
2024/03/03 03:30:42;;;;;;;55.28;26.60;;;;;;;;;;5092481;28;20082;-56
2024/03/03 03:33:08;;;;;;;56.58;25.92;;;;;;;;;;5091340;28;20028;-57
2024/03/03 03:35:34;;;;;;;52.22;25.38;;;;;;;;;;5092496;28;20097;-56
2024/03/03 03:38:00;;;;;;;55.60;25.98;;;;;;;;;;5092153;28;20406;-55
2024/03/03 03:40:26;;;;;;;52.58;25.45;;;;;;;;;;5093069;28;20035;-56
2024/03/03 03:42:52;;;;;;;61.63;28.50;;;;;;;;;;5091998;28;20031;-54
2024/03/03 03:45:18;;;;;;;57.10;27.45;;;;;;;;;;5092063;28;20028;-55
2024/03/03 03:47:44;;;;;;;58.58;26.85;;;;;;;;;;5091914;28;20032;-55
2024/03/03 03:50:10;;;;;;;58.95;28.58;;;;;;;;;;5091795;28;20028;-56
2024/03/03 03:52:36;;;;;;;53.30;26.20;;;;;;;;;;5096409;28;20035;-54
2024/03/03 03:55:02;;;;;;;63.58;28.65;;;;;;;;;;5092965;28;20032;-56
2024/03/03 03:57:29;;;;;;;55.38;27.30;;;;;;;;;;5087552;28;20035;-57
2024/03/03 03:59:55;;;;;;;52.25;25.58;;;;;;;;;;5094725;28;20028;-56
2024/03/03 04:02:21;;;;;;;53.65;25.27;;;;;;;;;;5111649;28;20055;-56
2024/03/03 04:04:46;;;;;;;51.65;25.77;;;;;;;;;;5110491;28;20035;-57
2024/03/03 04:07:12;;;;;;;61.00;27.40;;;;;;;;;;5096403;28;20059;-55
2024/03/03 04:09:39;;;;;;;65.65;27.83;;;;;;;;;;5089360;28;20036;-54
2024/03/03 04:12:05;;;;;;;65.00;28.00;;;;;;;;;;5099708;28;20077;-54
2024/03/03 04:14:31;;;;;;;62.05;28.90;;;;;;;;;;5106374;28;20055;-53
2024/03/03 04:16:57;;;;;;;65.30;29.45;;;;;;;;;;5105867;28;20040;-54
2024/03/03 04:19:23;;;;;;;63.92;29.33;;;;;;;;;;5103130;28;20024;-54
2024/03/03 04:21:49;;;;;;;61.10;28.40;;;;;;;;;;5097585;28;20032;-54
2024/03/03 04:24:15;;;;;;;56.05;27.27;;;;;;;;;;5091707;28;20083;-54
2024/03/03 04:26:44;;;;;;;61.17;27.02;;;;;;;;;;5096604;28;20051;-53
2024/03/03 04:29:10;;;;;;;57.95;27.20;;;;;;;;;;5095774;28;20545;-54
2024/03/03 04:31:43;;;;;;;58.05;27.88;;;;;;;;;;5097379;28;20036;-55
2024/03/03 04:34:10;;;;;;;65.53;29.80;;;;;;;;;;5099907;28;20118;-54
2024/03/03 04:36:35;;;;;;;62.00;29.23;;;;;;;;;;5081394;28;20093;-53
2024/03/03 04:39:02;;;;;;;63.58;29.58;;;;;;;;;;5096427;28;21498;-54
2024/03/03 04:41:28;;;;;;;66.45;30.52;;;;;;;;;;5107963;28;20020;-54
2024/03/03 04:43:54;;;;;;;68.07;31.40;;;;;;;;;;5080359;28;20020;-53
2024/03/03 04:46:20;;;;;;;63.08;29.75;;;;;;;;;;5091233;28;20089;-54
2024/03/03 04:48:46;;;;;;;70.07;31.15;;;;;;;;;;5087586;28;20044;-54
2024/03/03 04:51:12;;;;;;;68.95;31.02;;;;;;;;;;5097610;28;20035;-54
2024/03/03 04:53:40;;;;;;;67.97;30.60;;;;;;;;;;5101362;28;20028;-54
2024/03/03 04:56:07;;;;;;;69.13;30.73;;;;;;;;;;5098799;28;20070;-54
2024/03/03 04:58:33;;;;;;;63.13;29.80;;;;;;;;;;5111580;28;20043;-54
2024/03/03 05:00:59;;;;;;;81.35;33.75;;;;;;;;;;5098460;28;20111;-54
2024/03/03 05:03:26;;;;;;;66.25;30.95;;;;;;;;;;5075195;28;20103;-54
2024/03/03 05:05:52;;;;;;;62.90;31.15;;;;;;;;;;5091122;28;20434;-54
2024/03/03 05:08:18;;;;;;;65.78;30.92;;;;;;;;;;5099294;28;20032;-54
2024/03/03 05:10:44;;;;;;;68.60;33.92;;;;;;;;;;5088172;28;20036;-54
2024/03/03 05:13:10;;;;;;;69.30;32.78;;;;;;;;;;5091836;28;20111;-54
2024/03/03 05:15:36;;;;;;;76.03;33.17;;;;;;;;;;5088400;28;20062;-54
2024/03/03 05:18:03;;;;;;;65.78;32.38;;;;;;;;;;5094189;28;20480;-54
2024/03/03 05:20:29;;;;;;;65.97;29.95;;;;;;;;;;5088297;28;20066;-54
2024/03/03 05:22:55;;;;;;;75.25;34.38;;;;;;;;;;5080967;28;20091;-54
2024/03/03 05:25:21;;;;;;;78.28;33.47;;;;;;;;;;5096789;28;20028;-53
2024/03/03 05:27:47;;;;;;;69.28;32.80;;;;;;;;;;5090869;28;20031;-54
2024/03/03 05:30:13;;;;;;;71.32;34.05;;;;;;;;;;5094454;28;20020;-54
2024/03/03 05:32:39;;;;;;;72.68;33.47;;;;;;;;;;5093711;28;20078;-53
2024/03/03 05:35:05;;;;;;;70.80;32.97;;;;;;;;;;5094619;28;20032;-54
2024/03/03 05:37:31;;;;;;;74.38;33.65;;;;;;;;;;5094566;28;20111;-54
2024/03/03 05:39:58;;;;;;;70.20;31.63;;;;;;;;;;5094245;28;20114;-54
2024/03/03 05:42:24;;;;;;;64.75;31.13;;;;;;;;;;5095383;28;20027;-54
2024/03/03 05:44:50;;;;;;;67.95;32.70;;;;;;;;;;5094253;28;20661;-54
2024/03/03 05:47:16;;;;;;;66.10;31.13;;;;;;;;;;5093991;28;20040;-54
2024/03/03 05:49:42;;;;;;;74.97;35.08;;;;;;;;;;5093980;28;20078;-54
2024/03/03 05:52:08;;;;;;;72.45;34.25;;;;;;;;;;5093606;28;20043;-54
2024/03/03 05:54:34;;;;;;;78.10;36.20;;;;;;;;;;5094688;28;20031;-54
2024/03/03 05:57:00;;;;;;;72.72;33.08;;;;;;;;;;5088705;28;20395;-54
2024/03/03 05:59:26;;;;;;;70.85;35.70;;;;;;;;;;5093011;28;20024;-54
2024/03/03 06:01:53;;;;;;;74.13;36.08;;;;;;;;;;5092683;28;20375;-54
2024/03/03 06:04:19;;;;;;;63.45;32.70;;;;;;;;;;5082701;28;20097;-55
2024/03/03 06:06:46;;;;;;;74.80;34.33;;;;;;;;;;5093179;28;20028;-54
2024/03/03 06:09:13;;;;;;;67.40;30.27;;;;;;;;;;5092920;28;20418;-54
2024/03/03 06:11:40;;;;;;;69.97;33.58;;;;;;;;;;5091492;28;20042;-54
2024/03/03 06:14:09;;;;;;;66.65;32.97;;;;;;;;;;5090335;28;20032;-54
2024/03/03 06:16:39;;;;;;;69.78;32.60;;;;;;;;;;5097954;28;20089;-54
2024/03/03 06:19:05;;;;;;;67.20;32.90;;;;;;;;;;5092661;28;20062;-54
2024/03/03 06:21:31;;;;;;;68.22;33.40;;;;;;;;;;5090121;28;20083;-54
2024/03/03 06:23:57;;;;;;;72.30;33.92;;;;;;;;;;5089754;28;20037;-54
2024/03/03 06:26:31;;;;;;;73.75;33.15;;;;;;;;;;5091566;28;20383;-55
2024/03/03 06:28:57;;;;;;;72.85;33.88;;;;;;;;;;5086850;28;20372;-57
2024/03/03 06:31:23;;;;;;;74.65;34.30;;;;;;;;;;5086384;28;20035;-57
2024/03/03 06:33:49;;;;;;;71.75;34.58;;;;;;;;;;5092233;28;20491;-59
2024/03/03 06:36:18;;;;;;;73.03;35.03;;;;;;;;;;5095094;28;20068;-55
2024/03/03 06:38:44;;;;;;;68.25;34.35;;;;;;;;;;5077737;28;20083;-57
2024/03/03 06:41:14;;;;;;;73.25;33.05;;;;;;;;;;5081690;28;20069;-57
2024/03/03 06:43:41;;;;;;;69.65;32.53;;;;;;;;;;5096529;28;20100;-56
2024/03/03 06:46:07;;;;;;;83.15;33.25;;;;;;;;;;5093295;28;20020;-57
2024/03/03 06:48:34;;;;;;;68.40;34.05;;;;;;;;;;5091747;28;20035;-57
2024/03/03 06:51:00;;;;;;;65.90;33.80;;;;;;;;;;5096220;28;20031;-58
2024/03/03 06:53:26;;;;;;;64.65;32.70;;;;;;;;;;5090172;28;20047;-57
2024/03/03 06:55:52;;;;;;;67.32;34.85;;;;;;;;;;5092174;28;20500;-58
2024/03/03 06:58:18;;;;;;;61.58;32.10;;;;;;;;;;5081324;28;20395;-57
2024/03/03 07:00:44;;;;;;;70.97;34.40;;;;;;;;;;5089004;28;20478;-58
2024/03/03 07:05:36;;;;;;;72.38;35.97;;;;;;;;;;5088311;28;20040;-58
2024/03/03 07:08:05;;;;;;;62.55;33.03;;;;;;;;;;5087288;28;20471;-58
2024/03/03 07:10:31;;;;;;;69.00;34.15;;;;;;;;;;5080675;28;20035;-57
2024/03/03 07:12:57;;;;;;;106.45;60.83;;;;;;;;;;5091191;28;20122;-58
2024/03/03 07:15:23;;;;;;;67.00;34.45;;;;;;;;;;5091786;28;20028;-57
2024/03/03 07:17:49;;;;;;;65.93;31.30;;;;;;;;;;5082781;28;20118;-58
2024/03/03 07:20:16;;;;;;;74.28;38.97;;;;;;;;;;5084088;28;20419;-57
2024/03/03 07:22:41;;;;;;;72.93;35.92;;;;;;;;;;5086615;28;20032;-57
2024/03/03 07:25:08;;;;;;;91.25;44.33;;;;;;;;;;5085185;28;20082;-56
2024/03/03 07:27:34;;;;;;;183.25;93.82;;;;;;;;;;5074457;28;20039;-58
2024/03/03 07:30:00;;;;;;;70.90;36.80;;;;;;;;;;5097168;28;20024;-58
2024/03/03 07:32:28;;;;;;;72.35;38.45;;;;;;;;;;5092476;28;20115;-58
2024/03/03 07:34:54;;;;;;;61.30;32.00;;;;;;;;;;5084395;28;20420;-58
2024/03/03 07:37:20;;;;;;;63.88;30.85;;;;;;;;;;5091172;28;20113;-58
2024/03/03 07:39:46;;;;;;;65.05;31.75;;;;;;;;;;5103488;28;20057;-56
2024/03/03 07:42:12;;;;;;;71.65;34.85;;;;;;;;;;5097017;28;20024;-58
2024/03/03 07:44:38;;;;;;;60.83;29.80;;;;;;;;;;5094897;28;20105;-58
2024/03/03 07:47:05;;;;;;;56.45;30.13;;;;;;;;;;5089455;28;20467;-57
2024/03/03 07:49:31;;;;;;;59.53;29.60;;;;;;;;;;5091404;28;20086;-58
2024/03/03 07:51:57;;;;;;;103.57;65.60;;;;;;;;;;5091105;28;20035;-57
2024/03/03 07:54:23;;;;;;;68.63;41.45;;;;;;;;;;5079531;28;20021;-56
2024/03/03 07:56:49;;;;;;;74.47;43.97;;;;;;;;;;5086540;28;20115;-56
2024/03/03 07:59:15;;;;;;;58.15;31.77;;;;;;;;;;5090013;28;20031;-58
2024/03/03 08:01:41;;;;;;;55.47;30.52;;;;;;;;;;5090303;28;20118;-57
2024/03/03 08:04:09;;;;;;;62.28;31.80;;;;;;;;;;5085826;28;20162;-57
2024/03/03 08:06:35;;;;;;;57.22;30.30;;;;;;;;;;5091056;28;20016;-58
2024/03/03 08:09:03;;;;;;;59.78;31.27;;;;;;;;;;5089411;28;20028;-58
2024/03/03 08:11:35;;;;;;;60.28;32.42;;;;;;;;;;5083539;28;20040;-58
2024/03/03 08:14:04;;;;;;;55.80;28.25;;;;;;;;;;5084205;28;20038;-58
2024/03/03 08:16:30;;;;;;;56.95;29.48;;;;;;;;;;5083328;28;20110;-58
2024/03/03 08:18:56;;;;;;;54.75;27.30;;;;;;;;;;5083710;28;20044;-57
2024/03/03 08:21:22;;;;;;;53.00;27.15;;;;;;;;;;5087873;28;20487;-57
2024/03/03 08:23:48;;;;;;;50.30;26.75;;;;;;;;;;5086983;28;20040;-58
2024/03/03 08:26:15;;;;;;;59.15;28.73;;;;;;;;;;5100090;28;20449;-57
2024/03/03 08:28:42;;;;;;;51.30;25.15;;;;;;;;;;5084574;28;20055;-58
2024/03/03 08:31:08;;;;;;;48.70;26.27;;;;;;;;;;5092291;28;20023;-58
2024/03/03 08:33:34;;;;;;;47.97;25.60;;;;;;;;;;5094304;28;20054;-57
2024/03/03 08:36:00;;;;;;;54.60;25.98;;;;;;;;;;5093688;28;20032;-56
2024/03/03 08:38:26;;;;;;;50.60;27.30;;;;;;;;;;5096592;28;20028;-58
2024/03/03 08:40:52;;;;;;;50.42;24.90;;;;;;;;;;5094846;28;20111;-59
2024/03/03 08:43:18;;;;;;;47.63;25.45;;;;;;;;;;5100318;28;20035;-58
2024/03/03 08:45:44;;;;;;;44.42;25.40;;;;;;;;;;5091504;28;20028;-58
2024/03/03 08:48:10;;;;;;;52.55;26.95;;;;;;;;;;5089339;28;20027;-58
2024/03/03 08:50:36;;;;;;;43.55;23.48;;;;;;;;;;5072501;28;20028;-57
2024/03/03 08:53:04;;;;;;;44.90;22.98;;;;;;;;;;5074090;28;20034;-57
2024/03/03 08:55:30;;;;;;;37.92;21.75;;;;;;;;;;5087177;28;20067;-57
2024/03/03 08:57:56;;;;;;;38.80;21.13;;;;;;;;;;5087320;28;20038;-57
2024/03/03 09:00:22;;;;;;;41.38;21.80;;;;;;;;;;5084129;28;20033;-54
2024/03/03 09:02:48;;;;;;;37.45;19.92;;;;;;;;;;5086712;28;20112;-58
2024/03/03 09:05:14;;;;;;;40.42;20.75;;;;;;;;;;5093571;28;20112;-57
2024/03/03 09:07:40;;;;;;;33.17;19.90;;;;;;;;;;5095097;28;20482;-58
2024/03/03 09:10:06;;;;;;;42.17;20.73;;;;;;;;;;5086187;28;20032;-58
2024/03/03 09:12:32;;;;;;;36.70;19.63;;;;;;;;;;5092524;28;20024;-58
2024/03/03 09:14:58;;;;;;;39.78;19.20;;;;;;;;;;5081118;28;20033;-58
2024/03/03 09:17:24;;;;;;;36.08;19.08;;;;;;;;;;5085521;28;20056;-58
2024/03/03 09:19:50;;;;;;;32.20;18.52;;;;;;;;;;5087375;28;20395;-57
2024/03/03 09:22:16;;;;;;;28.02;16.48;;;;;;;;;;5074538;28;20040;-58
2024/03/03 09:24:43;;;;;;;31.02;16.45;;;;;;;;;;5093401;28;20024;-58
2024/03/03 09:27:12;;;;;;;31.85;16.45;;;;;;;;;;5088380;28;20103;-58
2024/03/03 09:29:38;;;;;;;31.40;16.13;;;;;;;;;;5083785;28;20032;-58
2024/03/03 09:32:04;;;;;;;32.05;16.02;;;;;;;;;;5081982;28;20047;-56
2024/03/03 09:34:30;;;;;;;28.27;15.77;;;;;;;;;;5080720;28;20028;-58
2024/03/03 09:36:56;;;;;;;32.10;16.30;;;;;;;;;;5088185;28;20021;-58
2024/03/03 09:39:22;;;;;;;29.65;15.73;;;;;;;;;;5090965;28;20035;-58
2024/03/03 09:41:55;;;;;;;27.17;14.88;;;;;;;;;;5091230;28;20036;-53
2024/03/03 09:44:22;;;;;;;31.60;15.05;;;;;;;;;;5080840;28;20020;-58
2024/03/03 09:46:48;;;;;;;23.08;14.23;;;;;;;;;;5091581;28;20043;-56
2024/03/03 09:49:18;;;;;;;26.00;13.57;;;;;;;;;;5089286;28;20107;-56
2024/03/03 09:51:48;;;;;;;24.85;12.57;;;;;;;;;;5080663;28;20031;-58
2024/03/03 09:54:15;;;;;;;20.73;11.90;;;;;;;;;;5086348;28;20036;-59
2024/03/03 09:56:44;;;;;;;24.60;11.55;;;;;;;;;;5088940;28;20030;-53
2024/03/03 09:59:12;;;;;;;21.88;12.23;;;;;;;;;;5094311;28;20096;-57
2024/03/03 10:01:39;;;;;;;20.30;11.88;;;;;;;;;;5092727;28;20032;-58
2024/03/03 10:04:06;;;;;;;18.85;10.40;;;;;;;;;;5086472;28;20400;-58
2024/03/03 10:06:36;;;;;;;21.75;10.57;;;;;;;;;;5094590;28;20040;-57
2024/03/03 10:09:04;;;;;;;17.60;10.55;;;;;;;;;;5091889;28;20024;-58
2024/03/03 10:11:33;;;;;;;16.90;9.63;;;;;;;;;;5086162;28;20093;-58
2024/03/03 10:13:59;;;;;;;16.50;9.18;;;;;;;;;;5085500;28;20032;-55
2024/03/03 10:16:26;;;;;;;15.07;8.60;;;;;;;;;;5083797;28;20051;-58
2024/03/03 10:19:02;;;;;;;16.83;9.48;;;;;;;;;;5094225;28;20076;-57
2024/03/03 10:21:37;;;;;;;18.95;9.40;;;;;;;;;;5098776;28;20032;-58
2024/03/03 10:24:26;;;;;;;16.58;8.65;;;;;;;;;;5094685;28;20027;-57
2024/03/03 10:26:53;;;;;;;17.27;8.80;;;;;;;;;;5070075;28;20538;-58
2024/03/03 10:29:19;;;;;;;14.65;8.55;;;;;;;;;;5092945;28;20028;-57
2024/03/03 10:31:46;;;;;;;17.15;8.90;;;;;;;;;;5101518;28;20028;-55
2024/03/03 10:34:13;;;;;;;16.42;9.48;;;;;;;;;;5091507;28;20037;-59
2024/03/03 10:36:39;;;;;;;14.05;8.15;;;;;;;;;;5086153;28;20028;-58
2024/03/03 10:39:08;;;;;;;15.68;8.27;;;;;;;;;;5089222;28;20102;-58
2024/03/03 10:41:34;;;;;;;12.60;7.03;;;;;;;;;;5092195;28;20433;-58
2024/03/03 10:44:01;;;;;;;11.32;6.95;;;;;;;;;;5092347;28;20027;-58
2024/03/03 10:46:27;;;;;;;11.00;6.93;;;;;;;;;;5076419;28;20051;-58
2024/03/03 10:48:55;;;;;;;13.23;7.53;;;;;;;;;;5088999;28;20036;-58
2024/03/03 10:51:21;;;;;;;15.52;9.40;;;;;;;;;;5082476;28;20348;-56
2024/03/03 10:53:51;;;;;;;17.17;9.52;;;;;;;;;;5090992;28;20036;-58
2024/03/03 10:56:18;;;;;;;13.02;7.20;;;;;;;;;;5099514;28;20077;-58
2024/03/03 10:58:46;;;;;;;13.90;7.32;;;;;;;;;;5090350;28;20052;-58
2024/03/03 11:01:13;;;;;;;15.05;7.68;;;;;;;;;;5093080;28;20648;-58
2024/03/03 11:03:39;;;;;;;14.32;7.15;;;;;;;;;;5089994;28;20021;-55
2024/03/03 11:06:06;;;;;;;12.52;7.72;;;;;;;;;;5087128;28;20123;-58
2024/03/03 11:08:32;;;;;;;16.92;8.35;;;;;;;;;;5091603;28;20024;-59
2024/03/03 11:11:09;;;;;;;13.15;6.85;;;;;;;;;;5091527;28;20038;-57
2024/03/03 11:13:39;;;;;;;17.23;8.05;;;;;;;;;;5100290;28;20019;-59
2024/03/03 11:16:05;;;;;;;13.65;7.75;;;;;;;;;;5103409;28;20027;-58
2024/03/03 11:18:34;;;;;;;14.30;7.72;;;;;;;;;;5095956;28;20515;-58
2024/03/03 11:21:06;;;;;;;15.63;8.75;;;;;;;;;;5095332;28;20850;-57
2024/03/03 11:23:48;;;;;;;11.45;6.55;;;;;;;;;;5084647;28;20024;-58
2024/03/03 11:26:19;;;;;;;13.98;7.30;;;;;;;;;;5091045;28;20028;-59
2024/03/03 11:28:49;;;;;;;14.02;7.18;;;;;;;;;;5083359;28;20020;-58
2024/03/03 11:31:15;;;;;;;15.23;6.80;;;;;;;;;;5077062;28;20103;-59
2024/03/03 11:33:42;;;;;;;11.48;6.78;;;;;;;;;;5087644;28;20031;-57
2024/03/03 11:36:08;;;;;;;11.57;6.63;;;;;;;;;;5078850;28;20035;-57
2024/03/03 11:38:42;;;;;;;11.88;5.97;;;;;;;;;;5093069;28;20059;-57
2024/03/03 11:41:11;;;;;;;10.75;5.70;;;;;;;;;;5084129;28;20028;-58
2024/03/03 11:43:40;;;;;;;11.38;6.40;;;;;;;;;;5082251;28;20070;-58
2024/03/03 11:46:07;;;;;;;11.30;5.70;;;;;;;;;;5091697;28;20086;-59
2024/03/03 11:48:36;;;;;;;8.60;4.75;;;;;;;;;;5081884;28;20028;-59
2024/03/03 11:51:24;;;;;;;14.30;5.50;;;;;;;;;;5085387;28;20033;-59
2024/03/03 11:54:00;;;;;;;8.82;4.75;;;;;;;;;;5088332;28;20125;-59
2024/03/03 11:56:29;;;;;;;10.38;5.15;;;;;;;;;;5087833;28;20036;-59
2024/03/03 11:58:55;;;;;;;12.55;5.22;;;;;;;;;;5089391;28;20035;-59
2024/03/03 12:01:24;;;;;;;8.50;5.47;;;;;;;;;;5083033;28;20083;-59
2024/03/03 12:03:50;;;;;;;11.35;6.38;;;;;;;;;;5089272;28;20024;-60
2024/03/03 12:06:18;;;;;;;9.05;4.72;;;;;;;;;;5092395;28;20058;-60
2024/03/03 12:08:47;;;;;;;14.93;5.75;;;;;;;;;;5090219;28;20095;-59
2024/03/03 12:11:13;;;;;;;9.02;4.82;;;;;;;;;;5088945;28;20032;-59
2024/03/03 12:13:39;;;;;;;9.75;5.30;;;;;;;;;;5090708;28;20496;-58
2024/03/03 12:16:05;;;;;;;11.10;5.63;;;;;;;;;;5089791;28;20035;-59
2024/03/03 12:18:32;;;;;;;9.98;5.55;;;;;;;;;;5088058;28;20044;-58
2024/03/03 12:20:58;;;;;;;13.00;6.55;;;;;;;;;;5095732;28;20024;-58
2024/03/03 12:23:24;;;;;;;9.13;5.20;;;;;;;;;;5093663;28;20099;-56
2024/03/03 12:25:50;;;;;;;10.38;5.45;;;;;;;;;;5081251;28;20103;-57
2024/03/03 12:28:16;;;;;;;7.45;5.13;;;;;;;;;;5090130;28;20115;-54
2024/03/03 12:30:42;;;;;;;9.40;4.93;;;;;;;;;;5087506;28;20404;-55
2024/03/03 12:33:08;;;;;;;7.07;4.32;;;;;;;;;;5074945;28;20083;-56
2024/03/03 12:35:34;;;;;;;10.32;5.75;;;;;;;;;;5084863;28;20036;-57
2024/03/03 12:38:01;;;;;;;9.80;5.28;;;;;;;;;;5089525;28;20063;-56
2024/03/03 12:40:27;;;;;;;10.27;5.97;;;;;;;;;;5088162;28;20443;-56
2024/03/03 12:42:54;;;;;;;10.02;5.70;;;;;;;;;;5096120;28;20103;-56
2024/03/03 12:45:20;;;;;;;11.68;5.35;;;;;;;;;;5088651;28;20035;-55
2024/03/03 12:47:47;;;;;;;9.85;5.63;;;;;;;;;;5082434;28;20023;-54
2024/03/03 12:50:14;;;;;;;11.65;6.30;;;;;;;;;;5091927;28;20124;-56
2024/03/03 12:52:43;;;;;;;8.85;4.82;;;;;;;;;;5094876;28;20042;-54
2024/03/03 12:55:09;;;;;;;9.10;5.38;;;;;;;;;;5089001;28;20032;-55
2024/03/03 12:57:36;;;;;;;12.77;6.32;;;;;;;;;;5091204;28;20584;-55
2024/03/03 13:00:03;;;;;;;11.88;6.25;;;;;;;;;;5093591;28;20487;-53
2024/03/03 13:02:29;;;;;;;12.65;5.95;;;;;;;;;;5086059;28;20016;-55
2024/03/03 13:04:58;;;;;;;9.25;5.70;;;;;;;;;;5093115;28;20036;-54
2024/03/03 13:07:24;;;;;;;11.52;6.13;;;;;;;;;;5086529;28;20487;-55
2024/03/03 13:09:50;;;;;;;12.02;6.15;;;;;;;;;;5085883;28;20111;-54
2024/03/03 13:12:19;;;;;;;16.25;7.70;;;;;;;;;;5079775;28;20028;-54
2024/03/03 13:14:45;;;;;;;13.63;6.50;;;;;;;;;;5100121;28;20024;-56
2024/03/03 13:17:12;;;;;;;18.75;8.52;;;;;;;;;;5095037;28;20110;-55
2024/03/03 13:19:43;;;;;;;13.93;8.25;;;;;;;;;;5089963;28;20047;-56
2024/03/03 13:22:09;;;;;;;14.25;8.30;;;;;;;;;;5089249;28;20474;-55
2024/03/03 13:24:36;;;;;;;17.98;7.70;;;;;;;;;;5094710;28;20028;-54
2024/03/03 13:27:02;;;;;;;13.02;7.55;;;;;;;;;;5092986;28;20093;-58
2024/03/03 13:29:28;;;;;;;16.17;8.35;;;;;;;;;;5091745;28;20064;-58
2024/03/03 13:31:54;;;;;;;15.70;8.45;;;;;;;;;;5081813;28;20531;-60
2024/03/03 13:34:20;;;;;;;15.65;7.80;;;;;;;;;;5088952;28;20028;-60
2024/03/03 13:36:46;;;;;;;17.42;8.40;;;;;;;;;;5093330;28;20031;-60
2024/03/03 13:39:13;;;;;;;11.73;7.53;;;;;;;;;;5079806;28;20029;-58
2024/03/03 13:41:39;;;;;;;12.88;7.63;;;;;;;;;;5086673;28;20495;-59
2024/03/03 13:44:08;;;;;;;12.77;6.45;;;;;;;;;;5085989;28;20023;-59
2024/03/03 13:46:34;;;;;;;12.73;6.60;;;;;;;;;;5078223;28;20035;-60
2024/03/03 13:49:00;;;;;;;13.30;7.07;;;;;;;;;;5086060;28;20448;-60
2024/03/03 13:51:26;;;;;;;12.02;5.75;;;;;;;;;;5092778;28;20024;-59
2024/03/03 13:53:52;;;;;;;11.30;6.22;;;;;;;;;;5089037;28;20028;-58
2024/03/03 13:56:17;;;;;;;11.23;6.10;;;;;;;;;;5086317;28;20112;-60
2024/03/03 13:58:43;;;;;;;9.40;5.18;;;;;;;;;;5090059;28;20024;-59
2024/03/03 14:01:10;;;;;;;12.15;5.45;;;;;;;;;;5086978;28;20554;-60
2024/03/03 14:03:36;;;;;;;11.07;5.13;;;;;;;;;;5089592;28;20016;-58
2024/03/03 14:06:02;;;;;;;10.43;5.65;;;;;;;;;;5091674;28;20087;-60
2024/03/03 14:08:28;;;;;;;8.20;5.03;;;;;;;;;;5092229;28;20035;-59
2024/03/03 14:10:54;;;;;;;8.82;5.35;;;;;;;;;;5084683;28;20056;-60
2024/03/03 14:13:20;;;;;;;8.05;4.80;;;;;;;;;;5070328;28;20033;-59
2024/03/03 14:15:46;;;;;;;10.05;5.20;;;;;;;;;;5082729;28;20075;-59
2024/03/03 14:18:12;;;;;;;10.18;5.53;;;;;;;;;;5084095;28;20053;-59
2024/03/03 14:20:38;;;;;;;8.75;4.97;;;;;;;;;;5088049;28;20058;-58